sensor_id;sensor_type;location;lat;lon;timestamp;P1;durP1;ratioP1;P2;durP2;ratioP2
18376;SDS011;9315;52.624;13.544;2023-12-22T00:02:22;13.37;;;2.30;;
18376;SDS011;9315;52.624;13.544;2023-12-22T00:04:50;15.97;;;2.57;;
18376;SDS011;9315;52.624;13.544;2023-12-22T00:07:17;21.47;;;3.13;;
18376;SDS011;9315;52.624;13.544;2023-12-22T00:09:47;18.87;;;2.57;;
18376;SDS011;9315;52.624;13.544;2023-12-22T00:12:14;8.93;;;1.77;;
18376;SDS011;9315;52.624;13.544;2023-12-22T00:14:42;9.77;;;1.57;;
18376;SDS011;9315;52.624;13.544;2023-12-22T00:17:09;16.97;;;2.40;;
18376;SDS011;9315;52.624;13.544;2023-12-22T00:19:37;8.20;;;1.20;;
18376;SDS011;9315;52.624;13.544;2023-12-22T00:22:04;12.43;;;2.13;;
18376;SDS011;9315;52.624;13.544;2023-12-22T00:24:31;12.87;;;2.03;;
18376;SDS011;9315;52.624;13.544;2023-12-22T00:26:59;12.17;;;2.40;;
18376;SDS011;9315;52.624;13.544;2023-12-22T00:29:27;11.53;;;2.00;;
18376;SDS011;9315;52.624;13.544;2023-12-22T00:31:55;14.57;;;1.93;;
18376;SDS011;9315;52.624;13.544;2023-12-22T00:34:22;8.97;;;1.77;;
18376;SDS011;9315;52.624;13.544;2023-12-22T00:36:50;11.57;;;2.40;;
18376;SDS011;9315;52.624;13.544;2023-12-22T00:39:17;11.80;;;1.53;;
18376;SDS011;9315;52.624;13.544;2023-12-22T00:41:45;19.13;;;2.40;;
18376;SDS011;9315;52.624;13.544;2023-12-22T00:44:12;14.43;;;2.00;;
18376;SDS011;9315;52.624;13.544;2023-12-22T00:46:39;17.17;;;2.30;;
18376;SDS011;9315;52.624;13.544;2023-12-22T00:49:07;13.20;;;2.23;;
18376;SDS011;9315;52.624;13.544;2023-12-22T00:51:34;11.07;;;1.73;;
18376;SDS011;9315;52.624;13.544;2023-12-22T00:54:02;18.63;;;2.80;;
18376;SDS011;9315;52.624;13.544;2023-12-22T00:56:29;14.90;;;2.60;;
18376;SDS011;9315;52.624;13.544;2023-12-22T00:58:57;13.73;;;2.37;;
18376;SDS011;9315;52.624;13.544;2023-12-22T01:01:36;9.57;;;1.67;;
18376;SDS011;9315;52.624;13.544;2023-12-22T01:04:04;12.20;;;2.37;;
18376;SDS011;9315;52.624;13.544;2023-12-22T01:06:36;13.67;;;2.07;;
18376;SDS011;9315;52.624;13.544;2023-12-22T01:09:06;14.00;;;2.23;;
18376;SDS011;9315;52.624;13.544;2023-12-22T01:11:33;18.07;;;2.53;;
18376;SDS011;9315;52.624;13.544;2023-12-22T01:14:01;18.43;;;2.60;;
18376;SDS011;9315;52.624;13.544;2023-12-22T01:16:28;9.93;;;1.67;;
18376;SDS011;9315;52.624;13.544;2023-12-22T01:18:56;18.53;;;3.43;;
18376;SDS011;9315;52.624;13.544;2023-12-22T01:21:24;22.37;;;2.63;;
18376;SDS011;9315;52.624;13.544;2023-12-22T01:23:52;16.67;;;2.00;;
18376;SDS011;9315;52.624;13.544;2023-12-22T01:26:19;16.00;;;2.53;;
18376;SDS011;9315;52.624;13.544;2023-12-22T01:28:47;12.87;;;2.90;;
18376;SDS011;9315;52.624;13.544;2023-12-22T01:31:14;11.63;;;2.03;;
18376;SDS011;9315;52.624;13.544;2023-12-22T01:33:44;15.73;;;2.40;;
18376;SDS011;9315;52.624;13.544;2023-12-22T01:36:12;13.63;;;2.30;;
18376;SDS011;9315;52.624;13.544;2023-12-22T01:38:40;16.43;;;2.50;;
18376;SDS011;9315;52.624;13.544;2023-12-22T01:41:07;15.33;;;2.43;;
18376;SDS011;9315;52.624;13.544;2023-12-22T01:43:35;13.37;;;2.40;;
18376;SDS011;9315;52.624;13.544;2023-12-22T01:46:02;11.33;;;1.97;;
18376;SDS011;9315;52.624;13.544;2023-12-22T01:48:30;12.43;;;2.57;;
18376;SDS011;9315;52.624;13.544;2023-12-22T01:50:58;20.03;;;2.60;;
18376;SDS011;9315;52.624;13.544;2023-12-22T01:53:28;13.40;;;2.17;;
18376;SDS011;9315;52.624;13.544;2023-12-22T01:55:57;14.80;;;2.37;;
18376;SDS011;9315;52.624;13.544;2023-12-22T01:58:28;15.57;;;2.87;;
18376;SDS011;9315;52.624;13.544;2023-12-22T02:01:02;13.17;;;2.00;;
18376;SDS011;9315;52.624;13.544;2023-12-22T02:03:31;16.63;;;1.97;;
18376;SDS011;9315;52.624;13.544;2023-12-22T02:05:58;10.90;;;2.13;;
18376;SDS011;9315;52.624;13.544;2023-12-22T02:08:31;19.20;;;2.73;;
18376;SDS011;9315;52.624;13.544;2023-12-22T02:10:59;12.57;;;2.30;;
18376;SDS011;9315;52.624;13.544;2023-12-22T02:13:28;18.60;;;2.47;;
18376;SDS011;9315;52.624;13.544;2023-12-22T02:15:56;16.13;;;3.03;;
18376;SDS011;9315;52.624;13.544;2023-12-22T02:18:39;13.70;;;2.30;;
18376;SDS011;9315;52.624;13.544;2023-12-22T02:21:13;14.30;;;2.37;;
18376;SDS011;9315;52.624;13.544;2023-12-22T02:23:41;17.47;;;1.90;;
18376;SDS011;9315;52.624;13.544;2023-12-22T02:26:20;12.93;;;1.97;;
18376;SDS011;9315;52.624;13.544;2023-12-22T02:28:56;17.33;;;2.53;;
18376;SDS011;9315;52.624;13.544;2023-12-22T02:31:33;14.83;;;1.80;;
18376;SDS011;9315;52.624;13.544;2023-12-22T02:34:13;15.27;;;2.37;;
18376;SDS011;9315;52.624;13.544;2023-12-22T02:36:49;15.50;;;1.93;;
18376;SDS011;9315;52.624;13.544;2023-12-22T02:39:20;12.10;;;2.40;;
18376;SDS011;9315;52.624;13.544;2023-12-22T02:41:48;20.33;;;1.63;;
18376;SDS011;9315;52.624;13.544;2023-12-22T02:44:16;9.17;;;2.03;;
18376;SDS011;9315;52.624;13.544;2023-12-22T02:46:44;15.00;;;2.30;;
18376;SDS011;9315;52.624;13.544;2023-12-22T02:49:11;14.07;;;2.50;;
18376;SDS011;9315;52.624;13.544;2023-12-22T02:51:42;12.20;;;1.90;;
18376;SDS011;9315;52.624;13.544;2023-12-22T02:54:09;10.33;;;1.53;;
18376;SDS011;9315;52.624;13.544;2023-12-22T02:56:37;13.10;;;1.97;;
18376;SDS011;9315;52.624;13.544;2023-12-22T02:59:05;18.50;;;2.43;;
18376;SDS011;9315;52.624;13.544;2023-12-22T03:01:33;12.17;;;2.13;;
18376;SDS011;9315;52.624;13.544;2023-12-22T03:04:00;11.73;;;1.93;;
18376;SDS011;9315;52.624;13.544;2023-12-22T03:06:27;9.97;;;1.50;;
18376;SDS011;9315;52.624;13.544;2023-12-22T03:08:55;14.73;;;2.40;;
18376;SDS011;9315;52.624;13.544;2023-12-22T03:11:23;15.10;;;2.10;;
18376;SDS011;9315;52.624;13.544;2023-12-22T03:13:50;16.73;;;2.10;;
18376;SDS011;9315;52.624;13.544;2023-12-22T03:16:18;13.33;;;2.10;;
18376;SDS011;9315;52.624;13.544;2023-12-22T03:18:45;10.50;;;1.50;;
18376;SDS011;9315;52.624;13.544;2023-12-22T03:21:16;11.60;;;2.03;;
18376;SDS011;9315;52.624;13.544;2023-12-22T03:23:47;19.87;;;2.17;;
18376;SDS011;9315;52.624;13.544;2023-12-22T03:26:14;9.17;;;1.33;;
18376;SDS011;9315;52.624;13.544;2023-12-22T03:28:41;6.50;;;1.10;;
18376;SDS011;9315;52.624;13.544;2023-12-22T03:31:09;9.80;;;1.43;;
18376;SDS011;9315;52.624;13.544;2023-12-22T03:33:37;10.27;;;1.50;;
18376;SDS011;9315;52.624;13.544;2023-12-22T03:36:05;9.60;;;1.43;;
18376;SDS011;9315;52.624;13.544;2023-12-22T03:38:32;7.60;;;1.27;;
18376;SDS011;9315;52.624;13.544;2023-12-22T03:41:00;11.27;;;1.40;;
18376;SDS011;9315;52.624;13.544;2023-12-22T03:43:28;5.73;;;1.10;;
18376;SDS011;9315;52.624;13.544;2023-12-22T03:45:57;10.97;;;1.30;;
18376;SDS011;9315;52.624;13.544;2023-12-22T03:48:25;13.70;;;1.67;;
18376;SDS011;9315;52.624;13.544;2023-12-22T03:50:52;10.07;;;1.43;;
18376;SDS011;9315;52.624;13.544;2023-12-22T03:53:20;11.10;;;1.60;;
18376;SDS011;9315;52.624;13.544;2023-12-22T03:55:47;7.40;;;1.43;;
18376;SDS011;9315;52.624;13.544;2023-12-22T03:58:15;11.40;;;1.40;;
18376;SDS011;9315;52.624;13.544;2023-12-22T04:00:42;9.37;;;1.60;;
18376;SDS011;9315;52.624;13.544;2023-12-22T04:03:10;10.27;;;1.30;;
18376;SDS011;9315;52.624;13.544;2023-12-22T04:05:37;10.13;;;1.50;;
18376;SDS011;9315;52.624;13.544;2023-12-22T04:08:06;11.63;;;1.30;;
18376;SDS011;9315;52.624;13.544;2023-12-22T04:10:33;9.47;;;1.50;;
18376;SDS011;9315;52.624;13.544;2023-12-22T04:13:01;11.70;;;1.77;;
18376;SDS011;9315;52.624;13.544;2023-12-22T04:15:29;7.90;;;1.10;;
18376;SDS011;9315;52.624;13.544;2023-12-22T04:18:03;5.77;;;0.87;;
18376;SDS011;9315;52.624;13.544;2023-12-22T04:20:31;3.53;;;0.53;;
18376;SDS011;9315;52.624;13.544;2023-12-22T04:22:59;7.03;;;0.77;;
18376;SDS011;9315;52.624;13.544;2023-12-22T04:25:27;5.17;;;0.70;;
18376;SDS011;9315;52.624;13.544;2023-12-22T04:27:56;4.27;;;0.50;;
18376;SDS011;9315;52.624;13.544;2023-12-22T04:30:29;5.80;;;0.80;;
18376;SDS011;9315;52.624;13.544;2023-12-22T04:32:59;2.43;;;0.40;;
18376;SDS011;9315;52.624;13.544;2023-12-22T04:35:33;2.77;;;0.30;;
18376;SDS011;9315;52.624;13.544;2023-12-22T04:38:04;4.87;;;0.37;;
18376;SDS011;9315;52.624;13.544;2023-12-22T04:40:44;4.43;;;0.60;;
18376;SDS011;9315;52.624;13.544;2023-12-22T04:43:14;3.37;;;0.90;;
18376;SDS011;9315;52.624;13.544;2023-12-22T04:45:44;5.53;;;0.73;;
18376;SDS011;9315;52.624;13.544;2023-12-22T04:48:13;5.67;;;0.60;;
18376;SDS011;9315;52.624;13.544;2023-12-22T04:50:44;3.70;;;0.50;;
18376;SDS011;9315;52.624;13.544;2023-12-22T04:53:12;3.73;;;0.50;;
18376;SDS011;9315;52.624;13.544;2023-12-22T04:55:40;6.87;;;0.70;;
18376;SDS011;9315;52.624;13.544;2023-12-22T04:58:08;2.33;;;0.63;;
18376;SDS011;9315;52.624;13.544;2023-12-22T05:00:36;4.27;;;0.60;;
18376;SDS011;9315;52.624;13.544;2023-12-22T05:03:07;5.90;;;0.50;;
18376;SDS011;9315;52.624;13.544;2023-12-22T05:05:37;5.87;;;0.83;;
18376;SDS011;9315;52.624;13.544;2023-12-22T05:08:12;4.10;;;0.90;;
18376;SDS011;9315;52.624;13.544;2023-12-22T05:10:55;4.33;;;0.73;;
18376;SDS011;9315;52.624;13.544;2023-12-22T05:13:23;4.03;;;0.30;;
18376;SDS011;9315;52.624;13.544;2023-12-22T05:16:06;4.07;;;0.50;;
18376;SDS011;9315;52.624;13.544;2023-12-22T05:18:38;1.83;;;0.30;;
18376;SDS011;9315;52.624;13.544;2023-12-22T05:21:07;3.73;;;0.70;;
18376;SDS011;9315;52.624;13.544;2023-12-22T05:23:44;4.97;;;0.40;;
18376;SDS011;9315;52.624;13.544;2023-12-22T05:26:18;5.20;;;0.60;;
18376;SDS011;9315;52.624;13.544;2023-12-22T05:28:49;2.70;;;0.37;;
18376;SDS011;9315;52.624;13.544;2023-12-22T05:31:32;5.73;;;0.50;;
18376;SDS011;9315;52.624;13.544;2023-12-22T05:34:06;2.23;;;0.60;;
18376;SDS011;9315;52.624;13.544;2023-12-22T05:37:07;4.60;;;0.50;;
18376;SDS011;9315;52.624;13.544;2023-12-22T05:39:41;2.70;;;0.50;;
18376;SDS011;9315;52.624;13.544;2023-12-22T05:42:11;1.40;;;0.30;;
18376;SDS011;9315;52.624;13.544;2023-12-22T05:44:40;5.83;;;0.60;;
18376;SDS011;9315;52.624;13.544;2023-12-22T05:47:08;3.53;;;0.33;;
18376;SDS011;9315;52.624;13.544;2023-12-22T05:49:39;2.67;;;0.50;;
18376;SDS011;9315;52.624;13.544;2023-12-22T05:52:07;2.37;;;0.57;;
18376;SDS011;9315;52.624;13.544;2023-12-22T05:54:38;1.47;;;0.20;;
18376;SDS011;9315;52.624;13.544;2023-12-22T05:57:14;7.97;;;1.00;;
18376;SDS011;9315;52.624;13.544;2023-12-22T05:59:57;2.47;;;0.53;;
18376;SDS011;9315;52.624;13.544;2023-12-22T06:02:25;4.97;;;0.77;;
18376;SDS011;9315;52.624;13.544;2023-12-22T06:04:56;3.93;;;0.63;;
18376;SDS011;9315;52.624;13.544;2023-12-22T06:07:33;5.77;;;0.70;;
18376;SDS011;9315;52.624;13.544;2023-12-22T06:10:03;8.47;;;0.60;;
18376;SDS011;9315;52.624;13.544;2023-12-22T06:12:31;6.10;;;0.90;;
18376;SDS011;9315;52.624;13.544;2023-12-22T06:14:58;2.70;;;0.70;;
18376;SDS011;9315;52.624;13.544;2023-12-22T06:17:29;2.73;;;0.70;;
18376;SDS011;9315;52.624;13.544;2023-12-22T06:20:01;4.67;;;0.60;;
18376;SDS011;9315;52.624;13.544;2023-12-22T06:22:28;4.93;;;0.80;;
18376;SDS011;9315;52.624;13.544;2023-12-22T06:24:56;5.80;;;0.80;;
18376;SDS011;9315;52.624;13.544;2023-12-22T06:27:23;6.27;;;0.80;;
18376;SDS011;9315;52.624;13.544;2023-12-22T06:29:51;7.00;;;0.70;;
18376;SDS011;9315;52.624;13.544;2023-12-22T06:32:19;6.90;;;0.80;;
18376;SDS011;9315;52.624;13.544;2023-12-22T06:34:51;6.47;;;0.60;;
18376;SDS011;9315;52.624;13.544;2023-12-22T06:37:19;7.03;;;0.90;;
18376;SDS011;9315;52.624;13.544;2023-12-22T06:39:46;4.13;;;0.50;;
18376;SDS011;9315;52.624;13.544;2023-12-22T06:42:20;4.43;;;0.60;;
18376;SDS011;9315;52.624;13.544;2023-12-22T06:44:48;6.07;;;0.70;;
18376;SDS011;9315;52.624;13.544;2023-12-22T06:47:16;6.67;;;1.00;;
18376;SDS011;9315;52.624;13.544;2023-12-22T06:49:43;5.70;;;0.70;;
18376;SDS011;9315;52.624;13.544;2023-12-22T06:52:11;5.67;;;0.93;;
18376;SDS011;9315;52.624;13.544;2023-12-22T06:54:39;5.33;;;0.90;;
18376;SDS011;9315;52.624;13.544;2023-12-22T06:57:06;2.20;;;0.53;;
18376;SDS011;9315;52.624;13.544;2023-12-22T06:59:38;4.87;;;0.90;;
18376;SDS011;9315;52.624;13.544;2023-12-22T07:02:09;2.30;;;0.40;;
18376;SDS011;9315;52.624;13.544;2023-12-22T07:05:00;2.90;;;0.43;;
18376;SDS011;9315;52.624;13.544;2023-12-22T07:07:47;7.53;;;0.60;;
18376;SDS011;9315;52.624;13.544;2023-12-22T07:10:16;4.50;;;0.70;;
18376;SDS011;9315;52.624;13.544;2023-12-22T07:12:44;3.17;;;0.60;;
18376;SDS011;9315;52.624;13.544;2023-12-22T07:15:11;4.27;;;0.57;;
18376;SDS011;9315;52.624;13.544;2023-12-22T07:17:39;3.10;;;0.50;;
18376;SDS011;9315;52.624;13.544;2023-12-22T07:20:07;4.03;;;0.40;;
18376;SDS011;9315;52.624;13.544;2023-12-22T07:22:35;4.17;;;0.60;;
18376;SDS011;9315;52.624;13.544;2023-12-22T07:25:05;6.60;;;0.67;;
18376;SDS011;9315;52.624;13.544;2023-12-22T07:27:35;5.97;;;1.00;;
18376;SDS011;9315;52.624;13.544;2023-12-22T07:30:06;7.70;;;1.10;;
18376;SDS011;9315;52.624;13.544;2023-12-22T07:32:35;4.40;;;0.47;;
18376;SDS011;9315;52.624;13.544;2023-12-22T07:35:03;6.10;;;0.70;;
18376;SDS011;9315;52.624;13.544;2023-12-22T07:37:31;4.63;;;0.83;;
18376;SDS011;9315;52.624;13.544;2023-12-22T07:40:04;6.07;;;1.10;;
18376;SDS011;9315;52.624;13.544;2023-12-22T07:42:33;7.67;;;1.10;;
18376;SDS011;9315;52.624;13.544;2023-12-22T07:45:01;14.10;;;1.20;;
18376;SDS011;9315;52.624;13.544;2023-12-22T07:47:36;7.47;;;1.30;;
18376;SDS011;9315;52.624;13.544;2023-12-22T07:50:13;8.90;;;1.60;;
18376;SDS011;9315;52.624;13.544;2023-12-22T07:52:42;4.97;;;0.77;;
18376;SDS011;9315;52.624;13.544;2023-12-22T07:55:11;6.87;;;0.80;;
18376;SDS011;9315;52.624;13.544;2023-12-22T07:57:38;6.17;;;1.00;;
18376;SDS011;9315;52.624;13.544;2023-12-22T08:00:06;6.97;;;1.07;;
18376;SDS011;9315;52.624;13.544;2023-12-22T08:02:35;4.53;;;0.87;;
18376;SDS011;9315;52.624;13.544;2023-12-22T08:05:09;10.20;;;1.00;;
18376;SDS011;9315;52.624;13.544;2023-12-22T08:07:38;9.00;;;1.00;;
18376;SDS011;9315;52.624;13.544;2023-12-22T08:10:06;12.10;;;1.10;;
18376;SDS011;9315;52.624;13.544;2023-12-22T08:12:37;7.33;;;0.87;;
18376;SDS011;9315;52.624;13.544;2023-12-22T08:15:05;12.40;;;1.30;;
18376;SDS011;9315;52.624;13.544;2023-12-22T08:17:34;8.63;;;1.33;;
18376;SDS011;9315;52.624;13.544;2023-12-22T08:20:03;6.23;;;1.13;;
18376;SDS011;9315;52.624;13.544;2023-12-22T08:22:45;7.87;;;1.37;;
18376;SDS011;9315;52.624;13.544;2023-12-22T08:25:20;7.40;;;0.83;;
18376;SDS011;9315;52.624;13.544;2023-12-22T08:27:54;8.07;;;1.00;;
18376;SDS011;9315;52.624;13.544;2023-12-22T08:30:29;5.73;;;1.20;;
18376;SDS011;9315;52.624;13.544;2023-12-22T08:33:02;10.37;;;1.10;;
18376;SDS011;9315;52.624;13.544;2023-12-22T08:35:34;9.47;;;1.23;;
18376;SDS011;9315;52.624;13.544;2023-12-22T08:38:22;3.57;;;0.63;;
18376;SDS011;9315;52.624;13.544;2023-12-22T08:41:03;5.93;;;1.67;;
18376;SDS011;9315;52.624;13.544;2023-12-22T08:43:34;3.23;;;0.50;;
18376;SDS011;9315;52.624;13.544;2023-12-22T08:46:02;7.67;;;1.20;;
18376;SDS011;9315;52.624;13.544;2023-12-22T08:48:30;5.73;;;1.27;;
18376;SDS011;9315;52.624;13.544;2023-12-22T08:51:03;8.63;;;0.97;;
18376;SDS011;9315;52.624;13.544;2023-12-22T08:53:34;9.20;;;1.30;;
18376;SDS011;9315;52.624;13.544;2023-12-22T08:56:14;10.10;;;1.20;;
18376;SDS011;9315;52.624;13.544;2023-12-22T08:58:44;14.77;;;1.90;;
18376;SDS011;9315;52.624;13.544;2023-12-22T09:01:15;6.67;;;1.13;;
18376;SDS011;9315;52.624;13.544;2023-12-22T09:03:44;8.10;;;2.13;;
18376;SDS011;9315;52.624;13.544;2023-12-22T09:06:15;16.90;;;1.73;;
18376;SDS011;9315;52.624;13.544;2023-12-22T09:08:50;12.70;;;1.60;;
18376;SDS011;9315;52.624;13.544;2023-12-22T09:11:20;12.87;;;1.47;;
18376;SDS011;9315;52.624;13.544;2023-12-22T09:13:48;11.07;;;1.60;;
18376;SDS011;9315;52.624;13.544;2023-12-22T09:16:20;9.70;;;1.50;;
18376;SDS011;9315;52.624;13.544;2023-12-22T09:18:50;3.53;;;1.20;;
18376;SDS011;9315;52.624;13.544;2023-12-22T09:21:18;11.80;;;1.53;;
18376;SDS011;9315;52.624;13.544;2023-12-22T09:23:46;8.77;;;1.47;;
18376;SDS011;9315;52.624;13.544;2023-12-22T09:26:15;7.03;;;1.27;;
18376;SDS011;9315;52.624;13.544;2023-12-22T09:28:42;10.67;;;1.30;;
18376;SDS011;9315;52.624;13.544;2023-12-22T09:31:12;3.30;;;0.70;;
18376;SDS011;9315;52.624;13.544;2023-12-22T09:33:41;12.00;;;1.60;;
18376;SDS011;9315;52.624;13.544;2023-12-22T09:36:12;9.27;;;0.83;;
18376;SDS011;9315;52.624;13.544;2023-12-22T09:38:40;8.77;;;1.17;;
18376;SDS011;9315;52.624;13.544;2023-12-22T09:41:09;11.70;;;1.93;;
18376;SDS011;9315;52.624;13.544;2023-12-22T09:43:37;10.80;;;2.30;;
18376;SDS011;9315;52.624;13.544;2023-12-22T09:46:10;14.90;;;1.80;;
18376;SDS011;9315;52.624;13.544;2023-12-22T09:48:41;12.67;;;2.40;;
18376;SDS011;9315;52.624;13.544;2023-12-22T09:51:09;9.67;;;1.53;;
18376;SDS011;9315;52.624;13.544;2023-12-22T09:53:38;9.67;;;1.13;;
18376;SDS011;9315;52.624;13.544;2023-12-22T09:56:07;18.67;;;2.07;;
18376;SDS011;9315;52.624;13.544;2023-12-22T09:58:35;9.63;;;1.60;;
18376;SDS011;9315;52.624;13.544;2023-12-22T10:01:05;9.53;;;1.80;;
18376;SDS011;9315;52.624;13.544;2023-12-22T10:03:33;12.90;;;1.80;;
18376;SDS011;9315;52.624;13.544;2023-12-22T10:06:01;12.47;;;2.70;;
18376;SDS011;9315;52.624;13.544;2023-12-22T10:08:30;9.23;;;1.73;;
18376;SDS011;9315;52.624;13.544;2023-12-22T10:11:05;7.97;;;1.40;;
18376;SDS011;9315;52.624;13.544;2023-12-22T10:13:43;14.47;;;2.00;;
18376;SDS011;9315;52.624;13.544;2023-12-22T10:16:11;14.93;;;1.60;;
18376;SDS011;9315;52.624;13.544;2023-12-22T10:18:39;17.77;;;2.47;;
18376;SDS011;9315;52.624;13.544;2023-12-22T10:21:08;6.40;;;1.23;;
18376;SDS011;9315;52.624;13.544;2023-12-22T10:23:38;10.73;;;1.57;;
18376;SDS011;9315;52.624;13.544;2023-12-22T10:26:07;15.60;;;2.20;;
18376;SDS011;9315;52.624;13.544;2023-12-22T10:28:40;17.57;;;3.03;;
18376;SDS011;9315;52.624;13.544;2023-12-22T10:31:11;12.57;;;2.50;;
18376;SDS011;9315;52.624;13.544;2023-12-22T10:33:46;13.60;;;2.20;;
18376;SDS011;9315;52.624;13.544;2023-12-22T10:36:15;11.37;;;2.43;;
18376;SDS011;9315;52.624;13.544;2023-12-22T10:38:44;10.67;;;1.73;;
18376;SDS011;9315;52.624;13.544;2023-12-22T10:41:15;16.57;;;2.33;;
18376;SDS011;9315;52.624;13.544;2023-12-22T10:43:42;14.50;;;1.67;;
18376;SDS011;9315;52.624;13.544;2023-12-22T10:46:13;15.03;;;2.17;;
18376;SDS011;9315;52.624;13.544;2023-12-22T10:48:41;9.70;;;2.03;;
18376;SDS011;9315;52.624;13.544;2023-12-22T10:51:12;12.57;;;2.67;;
18376;SDS011;9315;52.624;13.544;2023-12-22T10:53:50;10.47;;;1.47;;
18376;SDS011;9315;52.624;13.544;2023-12-22T10:56:18;18.53;;;2.40;;
18376;SDS011;9315;52.624;13.544;2023-12-22T10:58:47;19.20;;;2.53;;
18376;SDS011;9315;52.624;13.544;2023-12-22T11:01:14;12.27;;;1.87;;
18376;SDS011;9315;52.624;13.544;2023-12-22T11:04:02;17.40;;;2.67;;
18376;SDS011;9315;52.624;13.544;2023-12-22T11:06:34;9.97;;;1.57;;
18376;SDS011;9315;52.624;13.544;2023-12-22T11:09:08;14.60;;;2.20;;
18376;SDS011;9315;52.624;13.544;2023-12-22T11:11:37;14.00;;;1.83;;
18376;SDS011;9315;52.624;13.544;2023-12-22T11:14:07;12.60;;;1.67;;
18376;SDS011;9315;52.624;13.544;2023-12-22T11:16:36;6.57;;;1.57;;
18376;SDS011;9315;52.624;13.544;2023-12-22T11:19:07;13.70;;;1.53;;
18376;SDS011;9315;52.624;13.544;2023-12-22T11:21:36;16.03;;;2.77;;
18376;SDS011;9315;52.624;13.544;2023-12-22T11:24:04;16.17;;;1.70;;
18376;SDS011;9315;52.624;13.544;2023-12-22T11:26:32;21.63;;;2.10;;
18376;SDS011;9315;52.624;13.544;2023-12-22T11:29:01;10.53;;;1.63;;
18376;SDS011;9315;52.624;13.544;2023-12-22T11:31:32;10.33;;;1.77;;
18376;SDS011;9315;52.624;13.544;2023-12-22T11:34:03;12.67;;;1.70;;
18376;SDS011;9315;52.624;13.544;2023-12-22T11:36:40;12.40;;;1.97;;
18376;SDS011;9315;52.624;13.544;2023-12-22T11:39:15;14.30;;;2.03;;
18376;SDS011;9315;52.624;13.544;2023-12-22T11:41:45;13.83;;;2.97;;
18376;SDS011;9315;52.624;13.544;2023-12-22T11:44:20;10.77;;;1.90;;
18376;SDS011;9315;52.624;13.544;2023-12-22T11:46:59;13.93;;;2.53;;
18376;SDS011;9315;52.624;13.544;2023-12-22T11:49:35;15.00;;;2.33;;
18376;SDS011;9315;52.624;13.544;2023-12-22T11:52:39;14.03;;;1.50;;
18376;SDS011;9315;52.624;13.544;2023-12-22T11:54:59;8.30;;;1.40;;
18376;SDS011;9315;52.624;13.544;2023-12-22T11:59:57;9.03;;;1.57;;
18376;SDS011;9315;52.624;13.544;2023-12-22T12:02:35;10.27;;;1.77;;
18376;SDS011;9315;52.624;13.544;2023-12-22T12:05:05;9.03;;;1.80;;
18376;SDS011;9315;52.624;13.544;2023-12-22T12:07:45;10.87;;;1.77;;
18376;SDS011;9315;52.624;13.544;2023-12-22T12:13:05;12.57;;;1.70;;
18376;SDS011;9315;52.624;13.544;2023-12-22T12:15:38;11.47;;;1.70;;
18376;SDS011;9315;52.624;13.544;2023-12-22T12:18:08;6.83;;;1.50;;
18376;SDS011;9315;52.624;13.544;2023-12-22T12:20:36;12.33;;;1.37;;
18376;SDS011;9315;52.624;13.544;2023-12-22T12:23:05;11.87;;;1.30;;
18376;SDS011;9315;52.624;13.544;2023-12-22T12:25:33;4.90;;;0.80;;
18376;SDS011;9315;52.624;13.544;2023-12-22T12:28:06;11.07;;;2.00;;
18376;SDS011;9315;52.624;13.544;2023-12-22T12:30:42;8.40;;;1.40;;
18376;SDS011;9315;52.624;13.544;2023-12-22T12:33:16;8.33;;;1.30;;
18376;SDS011;9315;52.624;13.544;2023-12-22T12:35:48;12.73;;;1.70;;
18376;SDS011;9315;52.624;13.544;2023-12-22T12:38:21;8.30;;;2.10;;
18376;SDS011;9315;52.624;13.544;2023-12-22T12:41:09;7.77;;;1.50;;
18376;SDS011;9315;52.624;13.544;2023-12-22T12:43:53;9.93;;;1.13;;
18376;SDS011;9315;52.624;13.544;2023-12-22T12:46:23;8.63;;;1.47;;
18376;SDS011;9315;52.624;13.544;2023-12-22T12:49:05;11.70;;;1.47;;
18376;SDS011;9315;52.624;13.544;2023-12-22T12:51:38;7.17;;;1.10;;
18376;SDS011;9315;52.624;13.544;2023-12-22T12:54:17;9.43;;;1.57;;
18376;SDS011;9315;52.624;13.544;2023-12-22T12:56:45;8.30;;;1.27;;
18376;SDS011;9315;52.624;13.544;2023-12-22T12:59:16;10.97;;;2.07;;
18376;SDS011;9315;52.624;13.544;2023-12-22T13:01:49;7.90;;;1.10;;
18376;SDS011;9315;52.624;13.544;2023-12-22T13:04:21;11.00;;;1.73;;
18376;SDS011;9315;52.624;13.544;2023-12-22T13:06:54;11.63;;;1.33;;
18376;SDS011;9315;52.624;13.544;2023-12-22T13:09:30;11.60;;;1.50;;
18376;SDS011;9315;52.624;13.544;2023-12-22T13:12:03;12.73;;;2.10;;
18376;SDS011;9315;52.624;13.544;2023-12-22T13:14:31;13.97;;;1.43;;
18376;SDS011;9315;52.624;13.544;2023-12-22T13:16:59;5.73;;;1.10;;
18376;SDS011;9315;52.624;13.544;2023-12-22T13:19:27;9.33;;;1.53;;
18376;SDS011;9315;52.624;13.544;2023-12-22T13:21:57;16.00;;;1.93;;
18376;SDS011;9315;52.624;13.544;2023-12-22T13:24:24;12.13;;;1.87;;
18376;SDS011;9315;52.624;13.544;2023-12-22T13:27:03;15.53;;;1.50;;
18376;SDS011;9315;52.624;13.544;2023-12-22T13:29:43;10.23;;;1.37;;
18376;SDS011;9315;52.624;13.544;2023-12-22T13:32:16;4.03;;;0.77;;
18376;SDS011;9315;52.624;13.544;2023-12-22T13:34:51;9.57;;;1.40;;
18376;SDS011;9315;52.624;13.544;2023-12-22T13:37:21;9.50;;;1.40;;
18376;SDS011;9315;52.624;13.544;2023-12-22T13:39:51;14.27;;;2.00;;
18376;SDS011;9315;52.624;13.544;2023-12-22T13:42:19;11.73;;;1.40;;
18376;SDS011;9315;52.624;13.544;2023-12-22T13:44:48;10.53;;;1.67;;
18376;SDS011;9315;52.624;13.544;2023-12-22T13:47:19;14.60;;;1.83;;
18376;SDS011;9315;52.624;13.544;2023-12-22T13:49:47;10.70;;;1.50;;
18376;SDS011;9315;52.624;13.544;2023-12-22T13:52:31;9.30;;;1.77;;
18376;SDS011;9315;52.624;13.544;2023-12-22T13:54:59;9.93;;;1.50;;
18376;SDS011;9315;52.624;13.544;2023-12-22T13:57:28;4.77;;;0.90;;
18376;SDS011;9315;52.624;13.544;2023-12-22T13:59:56;16.00;;;1.63;;
18376;SDS011;9315;52.624;13.544;2023-12-22T14:02:24;8.43;;;1.47;;
18376;SDS011;9315;52.624;13.544;2023-12-22T14:04:51;11.33;;;1.30;;
18376;SDS011;9315;52.624;13.544;2023-12-22T14:07:19;8.23;;;1.40;;
18376;SDS011;9315;52.624;13.544;2023-12-22T14:09:47;8.20;;;0.93;;
18376;SDS011;9315;52.624;13.544;2023-12-22T14:12:15;18.43;;;1.43;;
18376;SDS011;9315;52.624;13.544;2023-12-22T14:14:53;10.57;;;1.70;;
18376;SDS011;9315;52.624;13.544;2023-12-22T14:17:22;12.30;;;1.50;;
18376;SDS011;9315;52.624;13.544;2023-12-22T14:19:50;10.03;;;1.50;;
18376;SDS011;9315;52.624;13.544;2023-12-22T14:22:17;11.40;;;1.60;;
18376;SDS011;9315;52.624;13.544;2023-12-22T14:24:45;5.80;;;0.93;;
18376;SDS011;9315;52.624;13.544;2023-12-22T14:27:14;10.23;;;1.37;;
18376;SDS011;9315;52.624;13.544;2023-12-22T14:29:44;10.50;;;1.73;;
18376;SDS011;9315;52.624;13.544;2023-12-22T14:32:12;5.60;;;0.93;;
18376;SDS011;9315;52.624;13.544;2023-12-22T14:34:45;11.43;;;1.93;;
18376;SDS011;9315;52.624;13.544;2023-12-22T14:37:16;10.17;;;1.10;;
18376;SDS011;9315;52.624;13.544;2023-12-22T14:39:43;12.27;;;1.70;;
18376;SDS011;9315;52.624;13.544;2023-12-22T14:42:12;7.80;;;1.20;;
18376;SDS011;9315;52.624;13.544;2023-12-22T14:44:40;9.90;;;1.40;;
18376;SDS011;9315;52.624;13.544;2023-12-22T14:47:08;5.63;;;0.73;;
18376;SDS011;9315;52.624;13.544;2023-12-22T14:49:39;10.83;;;1.20;;
18376;SDS011;9315;52.624;13.544;2023-12-22T14:52:07;14.90;;;1.70;;
18376;SDS011;9315;52.624;13.544;2023-12-22T14:54:35;8.93;;;1.40;;
18376;SDS011;9315;52.624;13.544;2023-12-22T14:57:02;11.53;;;1.90;;
18376;SDS011;9315;52.624;13.544;2023-12-22T14:59:30;12.70;;;1.70;;
18376;SDS011;9315;52.624;13.544;2023-12-22T15:01:58;11.80;;;1.90;;
18376;SDS011;9315;52.624;13.544;2023-12-22T15:04:25;11.07;;;1.77;;
18376;SDS011;9315;52.624;13.544;2023-12-22T15:06:53;9.47;;;1.10;;